Walla Walla, WA

12:48 AM PST on December 19, 2014 (GMT -0800)
Whitman | Change Station
CLOSE
Current Station
Personal Weather Station
Location: Walla Walla, WA
Elevation: 994 ft
Nearby Weather Stations

Elev 994 ft 46.07 °N, 118.33 °W | Updated 29 minutes ago

Light Rain
Light Rain Mist
37.3 °F
Feels Like 34 °F
N
4.0
Wind Variable Wind from WSW
Gusts 5.0 mph

Today
High -- | Low -- °F
--% Chance of Precip.
Yesterday
High -- | Low -- °F
Precip. -- in
7:31 AM 4:09 PM
Waning Crescent, 9% visible
Pressure 29.87 in
Visibility 3.0 miles
Clouds Mostly Cloudy 5500 ft
Mostly Cloudy 7000 ft
Overcast 8500 ft
Windchill 34 °F
Dew Point 36 °F
Humidity 97%
Rainfall 0.00 in
Snow Depth Not available.
UV 0 out of 12
Pollen .60 out of 12
Air Quality Not available.
Flu Activity Not available.
SPECI KALW 190831Z AUTO 09005KT 3SM -RA BR BKN055 BKN070 OVC085 04/03 A2987 RMK AO2 RAB15 P0000 T00440033

More Conditions Fewer Conditions

Pressure 29.87 in
Visibility 3.0 miles
Clouds Mostly Cloudy 5500 ft
Mostly Cloudy 7000 ft
Overcast 8500 ft
Windchill 34 °F
Dew Point 36 °F
Humidity 97%
Rainfall 0.00 in
Snow Depth Not available.
UV 0 out of 12
Pollen .60 out of 12
Air Quality Not available.
Flu Activity Not available.
SPECI KALW 190831Z AUTO 09005KT 3SM -RA BR BKN055 BKN070 OVC085 04/03 A2987 RMK AO2 RAB15 P0000 T00440033

More Conditions Fewer Conditions

10-Day Weather Forecast

Almanac

Astronomy

Dec. 19, 2014 Rise Set
Actual Time
Civil Twilight
Nautical Twilight
Astronomical Twilight
Moon
Length of Visible Light
Length of Day
Tomorrow will be .
, % of the Moon is Illuminated

Today's Extremes

State Highs State Lows

Community

WunderPhotos

Upload Photos

1,778,953 photos uploaded!

WunderBlogs® & News

Nearby

Air Quality

  Air Quality AQ Index Pollutant
Not available.

Snow Depth

Station Depth Elevation

Earthquake Activity

City Distance Mag. Time & Date
Minimum magnitude displayed is 2.5.

Coastal Water Temperatures

Place Temperature

Nearby Weather Stations